Time;durP1;ratioP1;P1;durP2;ratioP2;P2;SDS_P1;SDS_P2;PMS_P1;PMS_P2;Temp;Humidity;BMP_temperature;BMP_pressure;BME280_temperature;BME280_humidity;BME280_pressure;Samples;Min_cycle;Max_cycle;Signal;HPM_P1;HPM_P2
2022/03/22 00:00:06;;;;;;;12.30;6.83;;;9.50;79.60;;;9.95;49.25;102145.25;5046637;28;21213;-66
2022/03/22 00:02:33;;;;;;;16.57;8.97;;;9.50;80.40;;;9.95;48.29;102144.41;5022946;28;20648;-66
2022/03/22 00:05:00;;;;;;;20.30;11.10;;;9.50;79.10;;;9.86;48.75;102139.63;5032949;28;20620;-67
2022/03/22 00:07:27;;;;;;;18.57;9.37;;;9.40;79.50;;;9.79;48.88;102143.41;5013737;28;20739;-66
2022/03/22 00:09:54;;;;;;;17.87;8.43;;;9.30;80.00;;;9.69;49.30;102139.53;5033158;28;20643;-67
2022/03/22 00:12:21;;;;;;;17.80;10.27;;;9.20;80.80;;;9.63;49.85;102155.41;5000317;28;20635;-66
2022/03/22 00:14:48;;;;;;;16.60;10.83;;;9.20;82.60;;;9.56;48.96;102149.63;5016995;28;20619;-66
2022/03/22 00:17:36;;;;;;;16.20;9.87;;;9.10;81.20;;;9.62;48.00;102148.53;5034920;28;21164;-66
2022/03/22 00:20:10;;;;;;;19.80;11.63;;;9.10;80.10;;;9.40;49.78;102151.22;5033799;28;20621;-65
2022/03/22 00:22:41;;;;;;;17.60;10.67;;;9.00;82.20;;;9.43;49.42;102158.91;5016452;28;20644;-66
2022/03/22 00:25:09;;;;;;;18.83;10.63;;;8.90;82.30;;;9.56;48.39;102154.00;5032532;28;21037;-66
2022/03/22 00:27:57;;;;;;;20.20;11.13;;;9.10;80.90;;;9.64;48.52;102152.75;5033236;28;21222;-66
2022/03/22 00:30:28;;;;;;;18.30;9.77;;;9.20;80.40;;;9.63;48.41;102156.25;5033318;28;20612;-66
2022/03/22 00:32:59;;;;;;;17.03;9.80;;;9.10;80.70;;;9.62;48.21;102151.13;5034593;28;21016;-66
2022/03/22 00:35:36;;;;;;;22.30;10.63;;;9.20;81.40;;;9.58;50.25;102152.19;5033592;28;20727;-66
2022/03/22 00:38:13;;;;;;;18.90;10.53;;;9.10;84.00;;;9.55;49.73;102153.16;5016150;28;20638;-67
2022/03/22 00:40:41;;;;;;;17.73;9.57;;;9.00;85.00;;;9.52;49.83;102148.06;5013371;28;20678;-66
2022/03/22 00:43:08;;;;;;;18.07;10.30;;;9.00;86.00;;;9.45;50.52;102153.63;5016921;28;20672;-66
2022/03/22 00:45:38;;;;;;;21.10;11.20;;;8.90;86.70;;;9.41;50.52;102152.91;5015786;28;20612;-66
2022/03/22 00:48:12;;;;;;;20.07;11.20;;;8.90;87.70;;;9.36;50.89;102147.91;5017263;28;21035;-66
2022/03/22 00:50:47;;;;;;;22.00;12.10;;;8.90;88.40;;;9.31;51.24;102146.38;5031966;28;20643;-66
2022/03/22 00:53:15;;;;;;;19.80;11.20;;;8.80;89.40;;;9.19;50.81;102150.38;5015174;28;20656;-66
2022/03/22 00:55:43;;;;;;;17.53;9.47;;;8.80;89.80;;;9.19;51.69;102150.38;5031088;28;21175;-66
2022/03/22 00:58:10;;;;;;;21.67;12.20;;;8.80;90.50;;;9.26;51.76;102148.38;5016011;28;20628;-66
2022/03/22 01:00:38;;;;;;;33.73;11.13;;;8.80;90.70;;;9.20;51.69;102149.44;5000391;28;20703;-66
2022/03/22 01:03:07;;;;;;;18.50;10.20;;;8.70;91.20;;;9.19;51.21;102142.56;5015910;28;21037;-65
2022/03/22 01:05:35;;;;;;;21.57;11.30;;;8.70;91.00;;;9.17;51.43;102143.53;5037267;28;20641;-66
2022/03/22 01:08:12;;;;;;;24.03;12.00;;;8.70;91.10;;;9.22;51.49;102147.63;5028899;28;20608;-66
2022/03/22 01:10:43;;;;;;;22.80;11.70;;;8.70;91.20;;;9.23;50.73;102146.72;5032285;28;20624;-66
2022/03/22 01:13:11;;;;;;;19.63;11.93;;;8.80;91.20;;;9.24;51.21;102151.00;5032344;28;20680;-66
2022/03/22 01:15:42;;;;;;;18.97;11.53;;;8.80;91.20;;;9.29;51.19;102149.06;5014372;28;21067;-65
2022/03/22 01:18:12;;;;;;;19.70;10.40;;;8.80;91.30;;;9.35;50.04;102137.53;5033267;28;20620;-66
2022/03/22 01:20:49;;;;;;;24.43;11.73;;;8.80;91.10;;;9.31;50.74;102133.34;5032321;28;20749;-67
2022/03/22 01:23:19;;;;;;;20.20;11.90;;;8.90;90.80;;;9.41;50.41;102124.25;5032586;28;20679;-66
2022/03/22 01:26:07;;;;;;;22.47;13.37;;;8.90;90.90;;;9.26;50.08;102125.75;5032863;28;20617;-67
2022/03/22 01:28:39;;;;;;;19.87;11.00;;;8.90;90.50;;;9.24;50.14;102130.16;5002766;28;21366;-67
2022/03/22 01:31:06;;;;;;;19.40;10.53;;;8.80;90.80;;;9.26;50.70;102130.13;5032837;28;20721;-67
2022/03/22 01:33:33;;;;;;;20.30;11.60;;;8.80;91.30;;;9.14;51.13;102136.69;5031467;28;21334;-66
2022/03/22 01:36:00;;;;;;;19.07;10.70;;;8.70;91.80;;;9.00;51.87;102126.03;5014610;28;20616;-66
2022/03/22 01:38:27;;;;;;;17.30;9.57;;;8.60;93.00;;;8.94;52.36;102131.47;5052209;28;20634;-66
2022/03/22 01:40:54;;;;;;;18.77;11.20;;;8.50;93.60;;;8.91;52.58;102121.19;5032246;28;20731;-66
2022/03/22 01:43:21;;;;;;;21.30;11.67;;;8.40;93.80;;;8.95;52.32;102132.31;5033134;28;20660;-66
2022/03/22 01:45:49;;;;;;;20.30;10.60;;;8.50;93.90;;;8.93;52.02;102129.78;5015903;28;20612;-66
2022/03/22 01:48:16;;;;;;;21.33;12.37;;;8.50;93.90;;;8.92;51.75;102120.25;5032575;28;20636;-66
2022/03/22 01:50:43;;;;;;;19.37;11.77;;;8.50;93.90;;;8.91;51.83;102117.72;5032602;28;20627;-66
2022/03/22 01:53:11;;;;;;;18.10;11.17;;;8.50;93.10;;;8.92;51.83;102109.03;5030127;28;20672;-66
2022/03/22 01:55:39;;;;;;;19.73;11.10;;;8.50;93.20;;;8.92;51.81;102112.44;5032326;28;21007;-66
2022/03/22 01:58:06;;;;;;;22.00;10.40;;;8.50;93.30;;;8.88;51.53;102110.06;5015627;28;21199;-65
2022/03/22 02:00:33;;;;;;;18.83;10.67;;;8.40;93.70;;;8.84;51.85;102113.72;5032563;28;22216;-66
2022/03/22 02:05:56;;;;;;;17.83;9.37;;;8.30;93.50;;;8.74;52.25;102107.16;5003153;28;21199;-66
2022/03/22 02:08:29;;;;;;;18.43;9.70;;;8.30;94.00;;;8.60;53.21;102115.56;5035179;28;20703;-66
2022/03/22 02:10:59;;;;;;;14.67;7.17;;;8.20;94.80;;;8.55;53.16;102107.94;5034421;28;20623;-66
2022/03/22 02:13:31;;;;;;;13.77;7.70;;;8.10;95.60;;;8.42;54.48;102111.06;5035169;28;20727;-66
2022/03/22 02:16:01;;;;;;;14.23;7.10;;;7.90;96.30;;;8.31;55.13;102113.22;5032056;28;20672;-66
2022/03/22 02:18:29;;;;;;;14.90;8.37;;;7.90;97.20;;;8.28;54.98;102102.97;5023943;28;20632;-66
2022/03/22 02:20:58;;;;;;;15.80;8.80;;;7.80;97.90;;;8.15;55.58;102105.16;5031225;28;20820;-66
2022/03/22 02:23:50;;;;;;;17.57;9.60;;;7.80;98.60;;;8.09;56.47;102113.19;5041675;28;21083;-66
2022/03/22 02:26:18;;;;;;;19.03;8.83;;;7.70;99.00;;;8.09;55.08;102112.38;5051258;28;20647;-67
2022/03/22 02:28:46;;;;;;;21.40;9.50;;;7.60;98.80;;;8.09;55.48;102101.97;5034964;28;20677;-66
2022/03/22 02:31:13;;;;;;;20.50;10.47;;;7.60;98.70;;;8.02;55.45;102100.50;5039457;28;20210;-66
2022/03/22 02:33:44;;;;;;;17.17;9.90;;;7.60;98.70;;;7.94;55.53;102111.19;5019453;28;20648;-66
2022/03/22 02:36:11;;;;;;;20.93;10.27;;;7.50;98.90;;;7.86;55.78;102107.19;5030520;28;20621;-66
2022/03/22 02:38:39;;;;;;;15.83;9.37;;;7.40;99.30;;;7.88;55.89;102102.78;5021570;28;20671;-66
2022/03/22 02:41:06;;;;;;;15.67;9.97;;;7.40;99.30;;;7.86;55.86;102102.81;5013491;28;21013;-66
2022/03/22 02:43:34;;;;;;;19.33;10.40;;;7.40;99.30;;;7.93;55.26;102101.69;5024687;28;20688;-66
2022/03/22 02:46:01;;;;;;;15.95;9.65;;;7.50;99.30;;;7.89;55.48;102099.25;5029359;28;20743;-66
2022/03/22 02:48:28;;;;;;;20.60;11.00;;;7.50;99.40;;;7.96;55.55;102100.72;5030696;28;20221;-66
2022/03/22 02:50:56;;;;;;;17.70;9.82;;;7.50;99.30;;;7.97;54.64;102105.84;5030190;28;20616;-66
2022/03/22 02:53:23;;;;;;;22.53;10.50;;;7.50;99.10;;;7.98;54.10;102104.13;5010696;28;20237;-66
2022/03/22 02:55:50;;;;;;;17.67;9.90;;;7.60;98.80;;;7.96;55.13;102098.97;5021402;28;20690;-66
2022/03/22 02:58:17;;;;;;;16.43;9.23;;;7.50;99.10;;;7.90;55.03;102108.75;5032524;28;20624;-66
2022/03/22 03:00:44;;;;;;;19.67;9.43;;;7.50;99.30;;;7.74;55.88;102101.53;5019858;28;21047;-66
2022/03/22 03:03:11;;;;;;;16.73;8.75;;;7.30;99.70;;;7.70;56.11;102091.31;5032048;28;20222;-67
2022/03/22 03:05:38;;;;;;;20.40;10.18;;;7.30;99.70;;;7.63;55.33;102098.47;5013947;28;20201;-66
2022/03/22 03:08:06;;;;;;;19.75;10.13;;;7.30;99.50;;;7.54;56.28;102103.13;5011939;28;20256;-66
2022/03/22 03:10:33;;;;;;;22.55;10.95;;;7.20;99.90;;;7.51;56.58;102100.69;5044017;28;20212;-66
2022/03/22 03:13:04;;;;;;;19.83;9.70;;;7.10;99.90;;;7.51;56.43;102093.75;5033456;28;20225;-66
2022/03/22 03:15:32;;;;;;;17.70;10.35;;;7.10;99.90;;;7.40;56.56;102100.19;5028481;28;20240;-66
2022/03/22 03:17:59;;;;;;;17.38;10.65;;;7.10;99.90;;;7.34;56.69;102106.47;5031324;28;20210;-66
2022/03/22 03:20:26;;;;;;;18.67;11.15;;;7.00;99.90;;;7.34;57.13;102109.06;5031173;28;20213;-66
2022/03/22 03:22:54;;;;;;;18.90;9.35;;;6.90;99.90;;;7.31;56.72;102113.50;5029608;28;20233;-66
2022/03/22 03:25:21;;;;;;;23.20;11.38;;;6.90;99.90;;;7.32;55.96;102110.88;5013689;28;20232;-67
2022/03/22 03:27:49;;;;;;;19.80;10.57;;;6.90;99.90;;;7.34;56.01;102111.66;5013657;28;20260;-67
2022/03/22 03:30:17;;;;;;;19.35;10.50;;;6.90;99.90;;;7.35;56.26;102113.34;5030727;28;20212;-64
2022/03/22 03:32:44;;;;;;;17.25;8.82;;;6.90;99.90;;;7.34;55.87;102114.25;4996705;28;20279;-66
2022/03/22 03:35:11;;;;;;;15.10;8.20;;;6.90;99.90;;;7.35;56.06;102113.34;5030716;28;20198;-66
2022/03/22 03:37:42;;;;;;;20.92;7.72;;;6.90;99.90;;;7.34;55.02;102119.47;5011230;28;20297;-66
2022/03/22 03:40:10;;;;;;;15.60;7.47;;;6.90;99.90;;;7.35;55.61;102121.13;5030558;28;20209;-66
2022/03/22 03:42:42;;;;;;;19.13;9.23;;;6.90;99.90;;;7.35;55.35;102118.53;5030060;28;20694;-65
2022/03/22 03:47:58;;;;;;;18.30;9.90;;;6.90;99.50;;;7.30;54.16;102124.81;5016578;28;20621;-66
2022/03/22 03:50:26;;;;;;;15.82;8.88;;;6.90;99.10;;;7.29;54.13;102126.53;5012896;28;20206;-66
2022/03/22 03:52:53;;;;;;;14.57;8.82;;;6.90;98.70;;;7.23;54.51;102128.50;5029638;28;20602;-66
2022/03/22 03:55:20;;;;;;;12.55;6.50;;;6.90;98.60;;;7.18;54.55;102128.66;5030232;28;20788;-66
2022/03/22 03:57:49;;;;;;;14.45;6.68;;;6.80;99.00;;;7.18;53.88;102133.00;5011979;28;20230;-66
2022/03/22 04:00:16;;;;;;;15.18;8.60;;;6.80;98.80;;;7.16;53.91;102132.19;5013821;28;20241;-66
2022/03/22 04:02:43;;;;;;;16.98;9.40;;;6.80;98.70;;;7.08;54.20;102122.09;5012398;28;20256;-66
2022/03/22 04:05:11;;;;;;;14.38;8.50;;;6.70;98.90;;;7.09;54.36;102123.81;5013143;28;20224;-66
2022/03/22 04:07:56;;;;;;;15.70;8.48;;;6.70;99.20;;;7.10;54.79;102124.63;5013882;28;20201;-66
2022/03/22 04:10:22;;;;;;;12.73;7.05;;;6.70;98.90;;;7.07;54.72;102126.44;5029716;28;20198;-66
2022/03/22 04:12:49;;;;;;;14.82;8.10;;;6.70;99.10;;;7.06;55.15;102121.31;5029722;28;20252;-66
2022/03/22 04:15:16;;;;;;;16.35;8.95;;;6.70;99.10;;;6.96;54.62;102119.94;5031011;28;20210;-66
2022/03/22 04:17:43;;;;;;;18.85;9.95;;;6.50;99.30;;;6.95;54.38;102120.81;5030273;28;20234;-66
2022/03/22 04:20:11;;;;;;;17.45;8.88;;;6.60;99.20;;;6.81;55.36;102123.88;5030516;28;20252;-66
2022/03/22 04:22:38;;;;;;;14.60;9.10;;;6.40;99.60;;;6.81;55.28;102126.47;5031133;28;20225;-66
2022/03/22 04:25:22;;;;;;;18.38;9.52;;;6.50;99.80;;;6.87;55.13;102125.41;5035137;28;20193;-66
2022/03/22 04:33:38;;;;;;;13.52;7.70;;;6.50;99.40;;;6.88;54.32;102127.09;5034206;28;20245;-66
2022/03/22 04:36:05;;;;;;;16.80;8.95;;;6.50;99.40;;;6.80;54.68;102123.91;5011687;28;20206;-66
2022/03/22 04:38:34;;;;;;;12.95;7.55;;;6.40;99.30;;;6.78;54.67;102126.56;5042521;28;20217;-66
2022/03/22 04:41:01;;;;;;;12.20;6.10;;;6.40;99.40;;;6.73;55.01;102133.63;5053579;28;20285;-65
2022/03/22 04:43:28;;;;;;;10.20;5.90;;;6.40;99.90;;;6.75;55.23;102131.00;5038588;28;20224;-65
2022/03/22 04:45:54;;;;;;;13.25;5.97;;;6.30;99.90;;;6.74;55.44;102132.75;5015954;28;20308;-67
2022/03/22 04:48:21;;;;;;;11.30;6.30;;;6.30;99.90;;;6.66;55.97;102133.91;5032000;28;20662;-67
2022/03/22 04:56:43;;;;;;;12.15;6.18;;;6.20;99.90;;;6.63;56.47;102136.56;5032894;28;20206;-67
2022/03/22 04:59:06;;;;;;;9.45;5.47;;;6.10;99.90;;;6.30;57.81;102135.03;5043753;28;20658;-70
2022/03/22 05:01:33;;;;;;;12.45;5.78;;;6.00;99.90;;;6.28;58.08;102134.25;5052579;28;20225;-70
2022/03/22 05:04:00;;;;;;;10.63;6.28;;;5.90;99.90;;;6.18;58.00;102134.50;5037096;28;20237;-70
2022/03/22 05:06:27;;;;;;;7.43;4.47;;;5.90;99.90;;;6.15;58.79;102144.13;5014633;28;20213;-70
2022/03/22 05:08:54;;;;;;;11.73;6.72;;;5.80;99.90;;;6.09;58.40;102145.13;5006319;28;20666;-69
2022/03/22 05:11:22;;;;;;;10.32;6.18;;;5.70;99.90;;;6.10;58.44;102151.19;5031721;28;20928;-69
2022/03/22 05:13:49;;;;;;;13.77;6.82;;;5.70;99.90;;;6.03;57.80;102144.47;5017882;28;20241;-70
2022/03/22 05:16:16;;;;;;;11.27;5.95;;;5.70;99.90;;;6.02;58.46;102154.00;5031839;28;20281;-71
2022/03/22 05:18:43;;;;;;;9.70;6.10;;;5.70;99.90;;;6.01;57.89;102154.88;5032363;28;20626;-71
2022/03/22 05:21:10;;;;;;;10.90;5.40;;;5.70;99.90;;;6.05;58.25;102160.81;5031398;28;20209;-70
2022/03/22 05:23:38;;;;;;;7.05;5.18;;;5.70;99.90;;;6.05;57.93;102160.81;5031221;28;20701;-68
2022/03/22 05:26:05;;;;;;;8.43;5.40;;;5.70;99.90;;;6.04;57.69;102162.59;5031534;28;20206;-69
2022/03/22 05:28:33;;;;;;;16.88;7.60;;;5.70;99.90;;;6.04;58.16;102160.00;5030794;28;20190;-70
2022/03/22 05:31:00;;;;;;;15.13;6.65;;;5.70;99.90;;;5.99;58.05;102158.41;5015008;28;20321;-69
2022/03/22 05:33:27;;;;;;;15.45;8.40;;;5.70;99.90;;;5.96;58.21;102161.94;5032164;28;20222;-69
2022/03/22 05:35:53;;;;;;;14.13;8.02;;;5.70;99.90;;;5.93;58.18;102164.63;5033014;28;20206;-69
2022/03/22 05:38:20;;;;;;;13.45;7.47;;;5.60;99.90;;;6.00;57.63;102166.16;5012353;28;20209;-69
2022/03/22 05:40:47;;;;;;;17.92;9.50;;;5.70;99.90;;;6.09;57.21;102170.22;5026516;28;20229;-69
2022/03/22 05:43:14;;;;;;;14.88;8.32;;;5.80;99.90;;;6.22;57.09;102167.22;5030972;28;20234;-69
2022/03/22 05:45:50;;;;;;;15.35;8.18;;;5.90;99.90;;;6.28;56.77;102167.94;5023624;28;20202;-69
2022/03/22 05:48:21;;;;;;;16.05;8.60;;;6.10;99.90;;;6.44;56.56;102174.34;5014609;28;20206;-69
2022/03/22 05:50:48;;;;;;;18.38;9.00;;;6.40;99.90;;;6.76;55.37;102179.38;5012081;28;20201;-69
2022/03/22 05:53:16;;;;;;;14.25;8.07;;;6.70;99.90;;;7.11;54.05;102171.31;5030822;28;20230;-69
2022/03/22 05:55:43;;;;;;;18.20;9.25;;;7.10;98.70;;;7.45;53.19;102186.59;5013508;28;20589;-67
2022/03/22 05:58:11;;;;;;;17.33;8.93;;;7.50;97.50;;;7.68;52.19;102182.31;5013758;28;20206;-69
2022/03/22 06:00:38;;;;;;;14.18;7.65;;;7.90;96.10;;;8.16;50.59;102171.84;5047027;28;20308;-69
2022/03/22 06:03:05;;;;;;;13.27;8.35;;;8.30;94.90;;;8.67;49.88;102173.41;5031158;28;20233;-69
2022/03/22 06:05:32;;;;;;;19.10;10.13;;;8.80;93.50;;;8.99;48.48;102179.00;5028907;28;20268;-68
2022/03/22 06:07:59;;;;;;;14.90;9.43;;;9.30;91.40;;;9.37;47.51;102179.97;5012732;28;20203;-69
2022/03/22 06:10:28;;;;;;;18.80;9.90;;;9.70;90.40;;;9.95;45.84;102180.91;5022532;28;20629;-69
2022/03/22 06:12:57;;;;;;;18.37;10.30;;;10.20;87.00;;;10.33;45.05;102184.44;5030048;28;21032;-69
2022/03/22 06:15:31;;;;;;;17.30;9.83;;;10.60;83.80;;;10.76;44.46;102181.47;5032335;28;20627;-69
2022/03/22 06:18:02;;;;;;;18.20;9.20;;;11.00;81.20;;;11.05;43.57;102187.91;5013597;28;20750;-69
2022/03/22 06:20:38;;;;;;;17.17;8.90;;;11.40;78.30;;;11.72;41.28;102185.34;5013368;28;20642;-69
2022/03/22 06:23:10;;;;;;;16.67;9.50;;;12.10;75.40;;;11.95;40.97;102177.97;5029970;28;20787;-69
2022/03/22 06:25:38;;;;;;;19.40;9.80;;;12.70;71.30;;;12.72;40.14;102180.69;5030882;28;20711;-69
2022/03/22 06:28:09;;;;;;;16.60;10.00;;;13.10;69.30;;;13.38;38.74;102189.09;5013427;28;20711;-69
2022/03/22 06:30:37;;;;;;;16.43;10.60;;;13.90;65.90;;;13.58;37.90;102184.38;5014459;28;21018;-69
2022/03/22 06:33:16;;;;;;;17.53;9.57;;;14.40;62.90;;;14.32;36.87;102192.06;5012354;28;20656;-69
2022/03/22 06:35:45;;;;;;;16.53;10.03;;;15.00;61.10;;;14.91;35.70;102198.72;5031467;28;20620;-70
2022/03/22 06:38:13;;;;;;;17.30;10.30;;;15.80;58.50;;;15.40;34.43;102194.53;5030325;28;20636;-70
2022/03/22 06:40:40;;;;;;;17.33;10.20;;;16.50;55.90;;;15.98;33.99;102204.56;5024268;28;21203;-70
2022/03/22 06:43:12;;;;;;;16.93;10.10;;;17.20;54.00;;;16.40;33.19;102204.16;5029836;28;21411;-69
2022/03/22 06:45:39;;;;;;;19.07;11.70;;;17.70;52.00;;;16.63;32.81;102194.66;5013990;28;20625;-70
2022/03/22 06:48:08;;;;;;;20.47;11.93;;;18.10;50.70;;;16.98;31.52;102195.53;5014165;28;21222;-70
2022/03/22 06:50:36;;;;;;;18.97;11.73;;;18.50;49.70;;;17.33;31.29;102193.75;5012634;28;20724;-68
2022/03/22 06:53:05;;;;;;;21.93;11.30;;;18.90;48.70;;;17.61;30.96;102195.16;5030859;28;20671;-71
2022/03/22 06:55:34;;;;;;;17.47;11.00;;;19.20;47.70;;;17.92;30.36;102191.81;5010696;28;20631;-70
2022/03/22 06:58:02;;;;;;;19.57;12.40;;;19.60;47.00;;;18.25;29.91;102197.06;5032534;28;20611;-70
2022/03/22 07:00:31;;;;;;;18.73;12.50;;;19.90;46.30;;;18.53;29.71;102186.00;5032357;28;20619;-71
2022/03/22 07:03:01;;;;;;;20.53;12.77;;;20.20;45.70;;;18.71;29.43;102196.06;5043860;28;20675;-71
2022/03/22 07:05:29;;;;;;;21.03;13.13;;;20.40;45.10;;;18.82;29.06;102202.16;5031596;28;20640;-71
2022/03/22 07:07:56;;;;;;;19.53;12.40;;;20.60;44.70;;;18.81;29.38;102204.91;5029517;28;20628;-71
2022/03/22 07:10:24;;;;;;;18.47;12.07;;;20.50;44.50;;;19.12;28.74;102204.06;5021043;28;20621;-70
2022/03/22 07:12:59;;;;;;;17.60;12.10;;;20.70;44.30;;;18.93;29.11;102210.03;5012778;28;20822;-71
2022/03/22 07:15:44;;;;;;;19.63;11.80;;;20.50;44.30;;;18.85;nan;102212.47;5029452;28;20635;-71
2022/03/22 07:18:12;;;;;;;23.67;13.20;;;20.30;44.20;;;19.36;nan;102219.75;5029506;28;20632;-71
2022/03/22 07:20:39;;;;;;;19.43;12.03;;;20.60;44.20;;;19.47;nan;102217.00;5029619;28;20629;-71
2022/03/22 07:23:06;;;;;;;21.43;12.33;;;20.60;43.90;;;20.19;nan;102212.53;5027828;28;20668;-70
2022/03/22 07:25:33;;;;;;;20.13;13.27;;;21.20;43.90;;;20.57;nan;102210.00;5013828;28;20648;-70
2022/03/22 07:28:02;;;;;;;21.43;14.27;;;21.60;42.90;;;20.35;nan;102210.22;5029463;28;20629;-71
2022/03/22 07:30:29;;;;;;;21.07;13.37;;;21.40;42.60;;;20.42;nan;102209.53;5013128;28;20628;-71
2022/03/22 07:32:56;;;;;;;21.50;12.97;;;21.40;43.00;;;19.63;nan;102212.13;5037091;28;20674;-72
2022/03/22 07:35:24;;;;;;;21.10;13.17;;;21.20;42.90;;;20.57;nan;102207.34;5035814;28;20616;-71
2022/03/22 07:37:54;;;;;;;21.20;13.40;;;21.50;42.70;;;21.08;nan;102208.00;5025445;28;20634;-71
2022/03/22 07:40:21;;;;;;;21.60;14.03;;;21.80;42.70;;;21.35;nan;102216.06;5048614;28;20620;-71
2022/03/22 07:42:48;;;;;;;22.77;13.10;;;22.00;42.90;;;21.06;nan;102211.75;5037678;28;20672;-70
2022/03/22 07:45:19;;;;;;;22.20;13.47;;;21.90;42.20;;;21.72;nan;102207.31;5027538;28;20627;-71
2022/03/22 07:47:47;;;;;;;18.80;13.90;;;22.30;42.20;;;21.43;nan;102208.22;5012288;28;20793;-71
2022/03/22 07:53:05;;;;;;;21.53;13.53;;;22.60;41.80;;;22.20;nan;102211.50;5028321;28;20672;-70
2022/03/22 07:55:39;;;;;;;22.87;14.27;;;22.70;41.30;;;22.30;nan;102211.44;5029409;28;21229;-71
2022/03/22 07:58:07;;;;;;;20.87;14.23;;;22.90;41.20;;;22.73;nan;102206.28;5028822;28;21220;-71
2022/03/22 08:00:40;;;;;;;21.00;14.20;;;23.30;40.80;;;23.53;nan;102210.66;5011212;28;21202;-71
2022/03/22 08:03:12;;;;;;;19.03;14.50;;;23.90;40.20;;;23.91;nan;102207.56;5029570;28;20668;-72
2022/03/22 08:05:40;;;;;;;20.60;13.90;;;24.40;39.30;;;24.15;nan;102209.53;4999771;28;20629;-72
2022/03/22 08:08:08;;;;;;;23.70;14.83;;;24.60;38.90;;;24.29;nan;102204.44;5020394;28;21654;-71
2022/03/22 08:10:55;;;;;;;22.00;14.40;;;24.70;38.50;;;24.51;nan;102209.13;4992473;28;20601;-72
2022/03/22 08:13:22;;;;;;;22.23;15.13;;;25.00;38.20;;;24.85;nan;102219.78;5016719;28;20648;-72
2022/03/22 08:15:49;;;;;;;20.10;13.83;;;25.30;38.00;;;25.23;nan;102226.31;5032613;28;21196;-67
2022/03/22 08:18:17;;;;;;;18.10;12.97;;;25.50;37.60;;;25.89;nan;102232.25;5025617;28;20702;-72
2022/03/22 08:20:44;;;;;;;19.10;14.10;;;26.10;37.10;;;26.51;nan;102229.69;5027873;28;21052;-71
2022/03/22 08:23:12;;;;;;;21.97;14.93;;;26.70;36.50;;;26.72;nan;102227.19;5009182;28;20730;-71
2022/03/22 08:25:41;;;;;;;20.13;14.83;;;27.20;36.50;;;26.96;nan;102228.91;5015377;28;20632;-72
2022/03/22 08:28:10;;;;;;;22.03;15.13;;;27.40;36.10;;;27.61;nan;102227.34;5033020;28;20631;-72
2022/03/22 08:30:39;;;;;;;24.10;15.00;;;28.10;35.80;;;28.47;nan;102232.06;5034047;28;20636;-72
2022/03/22 08:33:09;;;;;;;18.53;13.20;;;28.90;34.60;;;29.13;nan;102227.19;5033559;28;21038;-72
2022/03/22 08:35:45;;;;;;;18.87;15.33;;;29.70;33.80;;;29.42;nan;102230.75;5014829;28;20632;-72
2022/03/22 08:38:14;;;;;;;28.87;16.73;;;30.20;33.40;;;29.82;nan;102227.34;5032758;28;20991;-72
2022/03/22 08:40:41;;;;;;;19.37;15.03;;;30.90;32.80;;;30.26;nan;102233.13;5014886;28;20636;-72
2022/03/22 08:43:09;;;;;;;38.43;14.77;;;31.30;32.40;;;30.61;nan;102234.75;5032955;28;20731;-72
2022/03/22 08:45:37;;;;;;;18.90;14.43;;;31.80;32.30;;;31.57;nan;102238.81;5033448;28;20616;-72
2022/03/22 08:48:12;;;;;;;17.37;14.50;;;32.90;31.40;;;32.03;nan;102233.34;5032317;28;20640;-70
2022/03/22 08:50:45;;;;;;;18.30;14.33;;;33.60;30.80;;;31.89;nan;102234.38;5053704;28;20623;-72
2022/03/22 08:53:13;;;;;;;18.77;16.20;;;34.00;30.50;;;32.37;nan;102238.38;5025489;28;20676;-73
2022/03/22 08:55:45;;;;;;;19.13;15.67;;;34.40;30.40;;;32.10;nan;102231.44;5015387;28;20648;-72
2022/03/22 08:58:13;;;;;;;17.70;15.27;;;34.80;29.90;;;32.73;nan;102237.81;5033022;28;20620;-72
2022/03/22 09:00:40;;;;;;;21.77;14.50;;;35.10;29.90;;;33.56;nan;102234.66;5032941;28;20647;-72
2022/03/22 09:03:10;;;;;;;17.90;15.57;;;35.90;29.40;;;33.25;nan;102223.91;5033439;28;20737;-72
2022/03/22 09:08:23;;;;;;;20.77;16.87;;;35.50;29.40;;;32.72;nan;102230.75;5022770;28;21292;-72
2022/03/22 09:10:51;;;;;;;21.23;17.40;;;36.10;29.30;;;30.92;nan;102223.47;5032685;28;20752;-71
2022/03/22 09:13:19;;;;;;;16.90;14.80;;;34.80;29.50;;;32.98;nan;102222.44;5033730;28;20751;-72
2022/03/22 09:15:48;;;;;;;19.80;15.73;;;36.10;29.40;;;34.05;nan;102232.94;5014000;28;20640;-71
2022/03/22 09:18:18;;;;;;;17.53;15.13;;;37.30;29.20;;;34.92;nan;102230.50;5033678;28;20636;-72
2022/03/22 09:20:46;;;;;;;18.73;15.20;;;38.20;28.80;;;34.79;nan;102221.72;5045159;28;20651;-72
2022/03/22 09:23:14;;;;;;;17.80;14.73;;;38.20;28.50;;;35.84;nan;102231.63;5033664;28;20668;-72
2022/03/22 09:25:43;;;;;;;18.53;15.40;;;39.00;28.40;;;36.74;nan;102237.25;5029134;28;20947;-72
2022/03/22 09:28:11;;;;;;;17.03;14.20;;;40.00;27.80;;;35.36;nan;102228.31;5041635;28;20636;-72
2022/03/22 09:30:40;;;;;;;15.00;13.23;;;39.40;27.50;;;36.08;nan;102221.56;5031526;28;21172;-71
2022/03/22 09:33:11;;;;;;;18.30;15.17;;;39.70;27.10;;;36.69;nan;102234.44;5032432;28;20653;-73
2022/03/22 09:35:38;;;;;;;15.60;13.80;;;40.10;27.20;;;37.56;nan;102227.44;5032162;28;20639;-66
2022/03/22 09:38:05;;;;;;;19.13;16.20;;;40.80;26.90;;;37.39;nan;102218.50;5032432;28;20636;-69
2022/03/22 09:40:33;;;;;;;16.83;14.77;;;41.50;26.80;;;37.67;nan;102221.91;5030006;28;20664;-66
2022/03/22 09:43:00;;;;;;;17.30;13.73;;;41.40;26.90;;;37.97;nan;102210.59;5032710;28;20656;-67
2022/03/22 09:45:33;;;;;;;16.67;15.07;;;41.60;26.60;;;38.14;nan;102214.06;5032850;28;20625;-69
2022/03/22 09:48:01;;;;;;;17.23;14.90;;;41.90;26.70;;;38.95;nan;102215.75;5032087;28;20629;-68
2022/03/22 09:53:16;;;;;;;19.00;16.33;;;43.00;26.30;;;38.49;nan;102208.19;5015690;28;20679;-67
2022/03/22 09:55:44;;;;;;;17.57;15.77;;;42.50;26.20;;;39.23;nan;102214.59;5029591;28;20633;-66
2022/03/22 09:58:12;;;;;;;15.50;13.83;;;42.90;26.40;;;39.93;nan;102220.44;5030963;28;21208;-70
2022/03/22 10:00:40;;;;;;;19.07;17.07;;;43.40;26.20;;;40.34;nan;102217.88;5030481;28;20641;-66
2022/03/22 10:03:07;;;;;;;19.27;17.10;;;43.80;26.20;;;40.39;nan;102212.41;5031690;28;20690;-67
2022/03/22 10:05:34;;;;;;;16.47;14.73;;;44.20;26.10;;;40.15;nan;102206.59;5031637;28;20697;-66
2022/03/22 10:08:08;;;;;;;19.10;16.00;;;44.20;25.90;;;39.58;nan;102205.81;5031850;28;20980;-66
2022/03/22 10:10:52;;;;;;;16.00;13.63;;;43.80;25.90;;;39.94;nan;102213.06;5029207;28;20639;-64
2022/03/22 10:13:19;;;;;;;20.37;17.83;;;43.40;26.00;;;40.31;nan;102208.28;5028944;28;20647;-64
2022/03/22 10:15:46;;;;;;;17.83;15.97;;;43.80;25.80;;;38.52;nan;102194.88;5031243;28;20636;-64
2022/03/22 10:18:13;;;;;;;17.30;14.90;;;43.10;25.80;;;40.11;nan;102206.31;5032051;28;20640;-66
2022/03/22 10:20:41;;;;;;;18.47;14.83;;;43.50;25.70;;;40.13;nan;102206.88;5030484;28;20629;-66
2022/03/22 10:23:12;;;;;;;17.87;16.07;;;43.70;25.70;;;40.70;nan;102212.19;5031089;28;20668;-64
2022/03/22 10:25:41;;;;;;;16.33;14.63;;;43.90;25.90;;;41.01;nan;102204.81;5026233;28;20625;-61
2022/03/22 10:28:09;;;;;;;19.60;17.50;;;44.20;25.70;;;40.56;nan;102202.88;5029761;28;20628;-64
2022/03/22 10:30:39;;;;;;;20.57;17.23;;;44.20;25.50;;;40.04;nan;102199.50;5029505;28;20620;-64
2022/03/22 10:33:09;;;;;;;18.93;13.93;;;43.90;25.60;;;38.04;nan;102183.94;4999749;28;20629;-65
2022/03/22 10:35:37;;;;;;;16.37;14.67;;;42.70;25.60;;;37.07;nan;102188.31;5031010;28;20632;-66
2022/03/22 10:38:09;;;;;;;16.97;15.27;;;41.50;25.80;;;36.90;nan;102182.06;5026527;28;20663;-65
2022/03/22 10:40:45;;;;;;;20.47;16.97;;;40.60;25.90;;;35.32;nan;102181.81;5033493;28;20647;-66
2022/03/22 10:43:19;;;;;;;18.90;15.23;;;39.80;26.10;;;33.66;nan;102177.31;5028365;28;20676;-64
2022/03/22 10:46:01;;;;;;;20.50;16.50;;;38.00;26.70;;;32.86;nan;102165.53;5011037;28;20616;-66